createdAt,value
2019-05-21T00:00:29.394Z,15.28
2019-05-21T00:01:30.783Z,15.35
2019-05-21T00:02:32.168Z,15.37
2019-05-21T00:03:33.567Z,15.34
2019-05-21T00:04:34.962Z,15.30
2019-05-21T00:05:36.356Z,15.31
2019-05-21T00:06:37.743Z,15.30
2019-05-21T00:07:39.137Z,15.34
2019-05-21T00:08:40.543Z,15.25
2019-05-21T00:09:41.946Z,15.33
2019-05-21T00:10:43.337Z,15.28
2019-05-21T00:11:44.721Z,15.27
2019-05-21T00:12:46.127Z,15.30
2019-05-21T00:13:47.511Z,15.23
2019-05-21T00:14:48.936Z,15.19
2019-05-21T00:15:50.315Z,15.23
2019-05-21T00:16:51.748Z,15.18
2019-05-21T00:17:53.145Z,15.15
2019-05-21T00:18:54.536Z,15.15
2019-05-21T00:19:55.936Z,15.13
2019-05-21T00:20:57.326Z,15.20
2019-05-21T00:21:58.714Z,15.25
2019-05-21T00:23:00.106Z,15.16
2019-05-21T00:24:01.550Z,15.18
2019-05-21T00:25:02.943Z,15.22
2019-05-21T00:26:04.320Z,15.20
2019-05-21T00:27:05.721Z,15.13
2019-05-21T00:28:07.118Z,15.27
2019-05-21T00:29:08.504Z,15.22
2019-05-21T00:30:09.890Z,15.20
2019-05-21T00:31:11.280Z,15.25
2019-05-21T00:32:12.685Z,15.22
2019-05-21T00:33:14.077Z,15.18
2019-05-21T00:34:15.467Z,15.22
2019-05-21T00:35:16.869Z,15.23
2019-05-21T00:36:18.371Z,15.22
2019-05-21T00:37:19.621Z,15.28
2019-05-21T00:38:21.019Z,15.18
2019-05-21T00:39:22.442Z,15.25
2019-05-21T00:40:23.821Z,15.31
2019-05-21T00:41:25.231Z,15.25
2019-05-21T00:42:26.651Z,15.22
2019-05-21T00:43:28.045Z,15.27
2019-05-21T00:44:29.449Z,15.30
2019-05-21T00:45:30.859Z,15.30
2019-05-21T00:46:32.249Z,15.31
2019-05-21T00:47:33.659Z,15.34
2019-05-21T00:48:35.045Z,15.31
2019-05-21T00:49:36.461Z,15.31
2019-05-21T00:50:37.846Z,15.25
2019-05-21T00:51:39.255Z,15.35
2019-05-21T00:52:40.644Z,15.31
2019-05-21T00:53:42.038Z,15.27
2019-05-21T00:54:43.434Z,15.30
2019-05-21T00:55:44.835Z,15.25
2019-05-21T00:56:46.241Z,15.34
2019-05-21T00:57:47.627Z,15.37
2019-05-21T00:58:49.015Z,15.34
2019-05-21T00:59:50.418Z,15.35
2019-05-21T01:00:51.816Z,15.34
2019-05-21T01:01:53.209Z,15.28
2019-05-21T01:02:54.610Z,15.28
2019-05-21T01:03:56.002Z,15.34
2019-05-21T01:05:00.597Z,15.30
2019-05-21T01:05:58.769Z,15.30
2019-05-21T01:07:00.166Z,15.27
2019-05-21T01:08:01.566Z,15.34
2019-05-21T01:09:02.959Z,15.40
2019-05-21T01:10:04.352Z,15.37
2019-05-21T01:11:05.755Z,15.30
2019-05-21T01:12:07.152Z,15.35
2019-05-21T01:13:08.562Z,15.27
2019-05-21T01:14:09.961Z,15.23
2019-05-21T01:15:11.368Z,15.33
2019-05-21T01:16:12.752Z,15.27
2019-05-21T01:17:14.164Z,15.28
2019-05-21T01:18:15.560Z,15.22
2019-05-21T01:19:16.961Z,15.31
2019-05-21T01:20:18.362Z,15.30
2019-05-21T01:21:19.758Z,15.35
2019-05-21T01:22:21.151Z,15.31
2019-05-21T01:23:22.557Z,15.28
2019-05-21T01:24:23.956Z,15.28
2019-05-21T01:25:25.368Z,15.25
2019-05-21T01:26:26.749Z,15.27
2019-05-21T01:27:28.151Z,15.22
2019-05-21T01:28:29.608Z,15.15
2019-05-21T01:29:30.955Z,15.28
2019-05-21T01:30:32.355Z,15.18
2019-05-21T01:31:33.749Z,15.16
2019-05-21T01:32:35.145Z,15.31
2019-05-21T01:33:36.538Z,15.20
2019-05-21T01:34:38.063Z,15.18
2019-05-21T01:35:39.341Z,15.28
2019-05-21T01:36:40.733Z,15.28
2019-05-21T01:37:42.133Z,15.20
2019-05-21T01:38:43.519Z,15.20
2019-05-21T01:39:44.909Z,15.25
2019-05-21T01:40:46.309Z,15.28
2019-05-21T01:41:47.701Z,15.22
2019-05-21T01:42:49.110Z,15.19
2019-05-21T01:43:50.476Z,15.13
2019-05-21T01:44:51.892Z,15.13
2019-05-21T01:45:53.290Z,15.15
2019-05-21T01:46:54.686Z,15.18
2019-05-21T01:47:56.086Z,15.20
2019-05-21T01:48:57.479Z,15.20
2019-05-21T01:49:58.882Z,15.15
2019-05-21T01:51:00.285Z,15.15
2019-05-21T01:52:01.691Z,15.16
2019-05-21T01:53:03.247Z,15.18
2019-05-21T01:54:04.523Z,15.15
2019-05-21T01:55:05.911Z,15.15
2019-05-21T01:56:07.297Z,15.19
2019-05-21T01:57:08.684Z,15.16
2019-05-21T01:58:10.091Z,15.28
2019-05-21T01:59:11.493Z,15.18
2019-05-21T02:00:12.898Z,15.13
2019-05-21T02:01:14.323Z,15.16
2019-05-21T02:02:15.723Z,15.19
2019-05-21T02:03:17.127Z,15.19
2019-05-21T02:04:18.512Z,15.16
2019-05-21T02:05:32.075Z,15.13
2019-05-21T02:06:21.272Z,15.18
2019-05-21T02:07:22.674Z,15.16
2019-05-21T02:08:24.060Z,15.19
2019-05-21T02:09:25.525Z,15.13
2019-05-21T02:10:26.817Z,15.25
2019-05-21T02:11:28.214Z,15.25
2019-05-21T02:12:29.610Z,15.23
2019-05-21T02:13:31.008Z,15.25
2019-05-21T02:14:32.407Z,15.20
2019-05-21T02:15:33.799Z,15.28
2019-05-21T02:16:35.186Z,15.16
2019-05-21T02:17:36.589Z,15.19
2019-05-21T02:18:37.982Z,15.18
2019-05-21T02:19:39.391Z,15.13
2019-05-21T02:20:40.790Z,15.19
2019-05-21T02:21:42.182Z,15.13
2019-05-21T02:22:43.572Z,15.11
2019-05-21T02:23:44.963Z,15.03
2019-05-21T02:24:46.351Z,15.09
2019-05-21T02:25:47.759Z,15.13
2019-05-21T02:26:49.155Z,15.01
2019-05-21T02:27:50.565Z,15.05
2019-05-21T02:28:51.963Z,15.04
2019-05-21T02:29:53.345Z,15.04
2019-05-21T02:30:56.663Z,15.03
2019-05-21T02:31:56.116Z,15.00
2019-05-21T02:32:57.507Z,15.01
2019-05-21T02:33:58.904Z,15.01
2019-05-21T02:35:00.281Z,15.03
2019-05-21T02:36:01.783Z,15.03
2019-05-21T02:37:06.075Z,15.03
2019-05-21T02:38:04.384Z,15.04
2019-05-21T02:39:05.777Z,15.04
2019-05-21T02:40:07.174Z,15.04
2019-05-21T02:41:08.568Z,15.01
2019-05-21T02:42:09.970Z,15.11
2019-05-21T02:43:11.347Z,15.00
2019-05-21T02:44:12.740Z,15.05
2019-05-21T02:45:14.140Z,15.00
2019-05-21T02:46:15.526Z,14.94
2019-05-21T02:47:16.917Z,14.98
2019-05-21T02:48:18.307Z,14.97
2019-05-21T02:49:19.703Z,14.87
2019-05-21T02:50:21.110Z,14.90
2019-05-21T02:51:22.503Z,14.93
2019-05-21T02:52:23.903Z,14.90
2019-05-21T02:53:25.297Z,14.82
2019-05-21T02:54:40.102Z,14.79
2019-05-21T02:55:28.035Z,14.71
2019-05-21T02:56:29.423Z,14.72
2019-05-21T02:57:30.816Z,14.63
2019-05-21T02:58:32.208Z,14.63
2019-05-21T02:59:33.620Z,14.63
2019-05-21T03:00:38.394Z,14.67
2019-05-21T03:01:36.387Z,14.66
2019-05-21T03:02:37.810Z,14.69
2019-05-21T03:03:39.214Z,14.67
2019-05-21T03:04:40.593Z,14.66
2019-05-21T03:05:42.030Z,14.69
2019-05-21T03:06:43.416Z,14.72
2019-05-21T03:07:44.800Z,14.66
2019-05-21T03:08:46.193Z,14.64
2019-05-21T03:09:47.577Z,14.63
2019-05-21T03:10:48.971Z,14.67
2019-05-21T03:11:50.357Z,14.63
2019-05-21T03:12:51.760Z,14.56
2019-05-21T03:13:53.155Z,14.48
2019-05-21T03:14:54.558Z,14.49
2019-05-21T03:15:55.941Z,14.49
2019-05-21T03:16:57.347Z,14.53
2019-05-21T03:17:58.752Z,14.48
2019-05-21T03:19:00.153Z,14.53
2019-05-21T03:20:01.571Z,14.53
2019-05-21T03:21:02.949Z,14.60
2019-05-21T03:22:04.344Z,14.48
2019-05-21T03:23:05.734Z,14.61
2019-05-21T03:24:07.123Z,14.63
2019-05-21T03:25:08.532Z,14.67
2019-05-21T03:26:09.921Z,14.59
2019-05-21T03:27:11.319Z,14.66
2019-05-21T03:28:12.722Z,14.64
2019-05-21T03:29:14.118Z,14.59
2019-05-21T03:30:15.518Z,14.63
2019-05-21T03:31:16.932Z,14.61
2019-05-21T03:32:18.457Z,14.66
2019-05-21T03:33:19.719Z,14.63
2019-05-21T03:34:21.077Z,14.63
2019-05-21T03:35:22.491Z,14.57
2019-05-21T03:36:33.302Z,14.63
2019-05-21T03:37:25.230Z,14.66
2019-05-21T03:38:26.638Z,14.66
2019-05-21T03:39:28.039Z,14.66
2019-05-21T03:40:29.437Z,14.64
2019-05-21T03:41:30.841Z,14.63
2019-05-21T03:42:32.239Z,14.61
2019-05-21T03:43:33.623Z,14.63
2019-05-21T03:44:35.026Z,14.59
2019-05-21T03:45:36.418Z,14.63
2019-05-21T03:46:37.814Z,14.66
2019-05-21T03:47:39.201Z,14.63
2019-05-21T03:48:40.605Z,14.66
2019-05-21T03:49:42.008Z,14.63
2019-05-21T03:50:43.404Z,14.53
2019-05-21T03:51:44.808Z,14.52
2019-05-21T03:52:46.197Z,14.57
2019-05-21T03:53:47.596Z,14.45
2019-05-21T03:54:48.987Z,14.45
2019-05-21T03:55:50.387Z,14.48
2019-05-21T03:56:51.779Z,14.53
2019-05-21T03:57:53.170Z,14.46
2019-05-21T03:58:54.558Z,14.49
2019-05-21T03:59:55.971Z,14.48
2019-05-21T04:00:57.361Z,14.54
2019-05-21T04:01:58.760Z,14.56
2019-05-21T04:03:00.157Z,14.45
2019-05-21T04:04:01.567Z,14.44
2019-05-21T04:05:02.970Z,14.44
2019-05-21T04:06:04.380Z,14.52
2019-05-21T04:07:05.787Z,14.42
2019-05-21T04:08:07.176Z,14.42
2019-05-21T04:09:08.575Z,14.45
2019-05-21T04:10:09.970Z,14.44
2019-05-21T04:11:11.402Z,14.46
2019-05-21T04:12:12.786Z,14.44
2019-05-21T04:13:14.229Z,14.41
2019-05-21T04:14:15.625Z,14.42
2019-05-21T04:15:17.031Z,14.39
2019-05-21T04:16:18.431Z,14.44
2019-05-21T04:17:19.831Z,14.46
2019-05-21T04:18:21.228Z,14.44
2019-05-21T04:19:22.635Z,14.46
2019-05-21T04:20:24.040Z,14.48
2019-05-21T04:21:25.457Z,14.54
2019-05-21T04:22:26.857Z,14.48
2019-05-21T04:23:28.265Z,14.54
2019-05-21T04:24:29.657Z,14.53
2019-05-21T04:25:31.056Z,14.59
2019-05-21T04:26:32.447Z,14.60
2019-05-21T04:27:33.852Z,14.57
2019-05-21T04:28:35.248Z,14.61
2019-05-21T04:29:36.651Z,14.66
2019-05-21T04:30:38.056Z,14.72
2019-05-21T04:31:39.457Z,14.69
2019-05-21T04:32:40.875Z,14.78
2019-05-21T04:33:42.270Z,14.85
2019-05-21T04:34:43.681Z,14.79
2019-05-21T04:35:45.085Z,14.95
2019-05-21T04:36:46.483Z,14.90
2019-05-21T04:37:47.877Z,14.91
2019-05-21T04:38:49.281Z,14.85
2019-05-21T04:39:50.684Z,14.87
2019-05-21T04:40:52.091Z,14.90
2019-05-21T04:41:53.512Z,14.97
2019-05-21T04:42:54.903Z,14.98
2019-05-21T04:43:56.306Z,14.97
2019-05-21T04:44:57.699Z,15.03
2019-05-21T04:45:59.090Z,15.07
2019-05-21T04:47:00.486Z,15.03
2019-05-21T04:48:01.905Z,15.15
2019-05-21T04:49:03.302Z,15.25
2019-05-21T04:50:04.707Z,15.18
2019-05-21T04:51:06.113Z,15.19
2019-05-21T04:52:07.507Z,15.23
2019-05-21T04:53:08.901Z,15.20
2019-05-21T04:54:10.308Z,15.16
2019-05-21T04:55:11.708Z,15.27
2019-05-21T04:56:13.114Z,15.23
2019-05-21T04:57:14.516Z,15.23
2019-05-21T04:58:15.908Z,15.30
2019-05-21T04:59:17.302Z,15.27
2019-05-21T05:00:18.725Z,15.37
2019-05-21T05:01:20.118Z,15.43
2019-05-21T05:02:21.526Z,15.41
2019-05-21T05:03:22.926Z,15.38
2019-05-21T05:04:24.327Z,15.48
2019-05-21T05:05:25.742Z,15.53
2019-05-21T05:06:27.160Z,15.56
2019-05-21T05:07:29.024Z,15.52
2019-05-21T05:08:29.948Z,15.58
2019-05-21T05:09:31.364Z,15.49
2019-05-21T05:10:32.813Z,15.64
2019-05-21T05:11:34.216Z,15.64
2019-05-21T05:12:35.619Z,15.56
2019-05-21T05:13:37.025Z,15.66
2019-05-21T05:14:38.430Z,15.64
2019-05-21T05:15:39.844Z,15.60
2019-05-21T05:16:41.240Z,15.53
2019-05-21T05:17:42.680Z,15.48
2019-05-21T05:18:44.086Z,15.51
2019-05-21T05:19:45.494Z,15.44
2019-05-21T05:20:46.901Z,15.37
2019-05-21T05:21:48.312Z,15.46
2019-05-21T05:22:49.703Z,15.41
2019-05-21T05:23:51.119Z,15.41
2019-05-21T05:24:52.520Z,15.55
2019-05-21T05:25:53.933Z,15.58
2019-05-21T05:26:55.343Z,15.51
2019-05-21T05:27:56.747Z,15.56
2019-05-21T05:28:58.150Z,15.56
2019-05-21T05:29:59.550Z,15.64
2019-05-21T05:31:00.952Z,15.58
2019-05-21T05:32:02.348Z,15.62
2019-05-21T05:33:03.764Z,15.62
2019-05-21T05:34:05.159Z,15.60
2019-05-21T05:35:06.566Z,15.62
2019-05-21T05:36:07.976Z,15.66
2019-05-21T05:37:09.371Z,15.62
2019-05-21T05:38:10.785Z,15.62
2019-05-21T05:39:12.169Z,15.70
2019-05-21T05:40:13.916Z,15.71
2019-05-21T05:41:15.022Z,15.74
2019-05-21T05:42:16.418Z,15.91
2019-05-21T05:43:20.520Z,15.91
2019-05-21T05:44:19.201Z,15.81
2019-05-21T05:45:20.585Z,15.81
2019-05-21T05:46:21.989Z,15.80
2019-05-21T05:47:23.394Z,15.73
2019-05-21T05:48:24.797Z,15.73
2019-05-21T05:49:26.189Z,15.64
2019-05-21T05:50:27.588Z,15.58
2019-05-21T05:51:28.995Z,15.66
2019-05-21T05:52:30.401Z,15.64
2019-05-21T05:53:32.408Z,15.68
2019-05-21T05:54:33.809Z,15.81
2019-05-21T05:55:35.193Z,15.81
2019-05-21T05:56:36.628Z,15.84
2019-05-21T05:57:38.045Z,15.85
2019-05-21T05:58:39.451Z,15.86
2019-05-21T05:59:40.848Z,15.93
2019-05-21T06:00:42.253Z,15.92
2019-05-21T06:01:43.665Z,16.04
2019-05-21T06:02:45.066Z,16.08
2019-05-21T06:03:46.486Z,16.13
2019-05-21T06:04:47.876Z,16.08
2019-05-21T06:05:49.283Z,16.14
2019-05-21T06:06:50.698Z,16.13
2019-05-21T06:07:59.952Z,16.22
2019-05-21T06:08:53.459Z,16.26
2019-05-21T06:09:54.864Z,16.37
2019-05-21T06:10:56.267Z,16.36
2019-05-21T06:11:57.663Z,16.42
2019-05-21T06:12:59.085Z,16.27
2019-05-21T06:14:00.467Z,16.34
2019-05-21T06:15:01.953Z,16.40
2019-05-21T06:16:03.284Z,16.54
2019-05-21T06:17:04.699Z,16.66
2019-05-21T06:18:06.092Z,16.92
2019-05-21T06:19:07.498Z,16.99
2019-05-21T06:20:08.908Z,17.35
2019-05-21T06:21:10.324Z,17.57
2019-05-21T06:22:11.716Z,17.71
2019-05-21T06:23:13.138Z,17.63
2019-05-21T06:24:14.538Z,17.68
2019-05-21T06:25:15.953Z,17.76
2019-05-21T06:26:17.368Z,17.81
2019-05-21T06:27:18.772Z,17.99
2019-05-21T06:28:20.172Z,18.10
2019-05-21T06:29:21.566Z,18.19
2019-05-21T06:30:22.973Z,18.32
2019-05-21T06:31:24.368Z,18.47
2019-05-21T06:32:25.796Z,18.59
2019-05-21T06:33:27.277Z,18.72
2019-05-21T06:34:28.648Z,18.82
2019-05-21T06:35:30.052Z,18.90
2019-05-21T06:36:31.486Z,18.93
2019-05-21T06:37:32.894Z,19.05
2019-05-21T06:38:34.295Z,19.16
2019-05-21T06:39:35.701Z,19.17
2019-05-21T06:40:38.588Z,19.15
2019-05-21T06:41:38.509Z,19.13
2019-05-21T06:42:39.916Z,19.07
2019-05-21T06:43:41.317Z,19.15
2019-05-21T06:44:42.720Z,19.05
2019-05-21T06:45:44.115Z,18.97
2019-05-21T06:46:45.515Z,18.96
2019-05-21T06:47:46.920Z,18.94
2019-05-21T06:48:48.333Z,18.97
2019-05-21T06:49:49.722Z,19.13
2019-05-21T06:50:51.140Z,19.28
2019-05-21T06:51:52.543Z,19.47
2019-05-21T06:52:53.949Z,19.62
2019-05-21T06:53:55.360Z,19.79
2019-05-21T06:54:56.758Z,19.79
2019-05-21T06:55:58.181Z,19.89
2019-05-21T06:56:59.578Z,19.90
2019-05-21T06:58:01.000Z,20.00
2019-05-21T06:59:02.394Z,19.98
2019-05-21T07:00:03.797Z,20.19
2019-05-21T07:01:05.207Z,20.37
2019-05-21T07:02:06.632Z,20.44
2019-05-21T07:03:08.037Z,20.44
2019-05-21T07:04:09.465Z,20.27
2019-05-21T07:05:10.875Z,20.26
2019-05-21T07:06:12.288Z,20.23
2019-05-21T07:07:13.679Z,20.01
2019-05-21T07:08:15.082Z,19.94
2019-05-21T07:09:16.486Z,19.87
2019-05-21T07:10:17.991Z,19.90
2019-05-21T07:11:19.272Z,19.94
2019-05-21T07:12:20.679Z,19.94
2019-05-21T07:13:22.089Z,20.12
2019-05-21T07:14:23.483Z,20.23
2019-05-21T07:15:24.894Z,20.26
2019-05-21T07:16:26.311Z,20.37
2019-05-21T07:17:27.713Z,20.53
2019-05-21T07:18:29.132Z,20.50
2019-05-21T07:19:30.517Z,20.48
2019-05-21T07:20:31.928Z,20.56
2019-05-21T07:21:33.336Z,20.57
2019-05-21T07:22:34.815Z,20.71
2019-05-21T07:23:36.124Z,20.83
2019-05-21T07:24:37.551Z,21.00
2019-05-21T07:25:38.952Z,20.98
2019-05-21T07:26:40.476Z,21.11
2019-05-21T07:27:41.891Z,21.28
2019-05-21T07:28:43.327Z,21.36
2019-05-21T07:29:44.715Z,21.31
2019-05-21T07:30:46.124Z,21.30
2019-05-21T07:31:47.521Z,21.45
2019-05-21T07:32:48.962Z,21.51
2019-05-21T07:33:50.368Z,21.52
2019-05-21T07:34:51.842Z,21.66
2019-05-21T07:35:53.225Z,21.56
2019-05-21T07:36:54.645Z,21.66
2019-05-21T07:37:56.053Z,21.67
2019-05-21T07:38:57.481Z,21.83
2019-05-21T07:39:58.896Z,22.01
2019-05-21T07:41:00.301Z,22.15
2019-05-21T07:42:01.700Z,22.27
2019-05-21T07:43:03.104Z,22.46
2019-05-21T07:44:04.584Z,22.57
2019-05-21T07:45:05.905Z,22.60
2019-05-21T07:46:07.312Z,22.67
2019-05-21T07:47:08.705Z,22.72
2019-05-21T07:48:10.130Z,22.85
2019-05-21T07:49:11.562Z,22.82
2019-05-21T07:50:13.040Z,22.81
2019-05-21T07:51:14.360Z,22.96
2019-05-21T07:52:15.766Z,23.03
2019-05-21T07:53:17.164Z,23.15
2019-05-21T07:54:18.564Z,23.09
2019-05-21T07:55:19.990Z,23.16
2019-05-21T07:56:21.370Z,23.15
2019-05-21T07:57:22.784Z,23.31
2019-05-21T07:58:24.186Z,23.31
2019-05-21T07:59:25.601Z,23.45
2019-05-21T08:00:27.005Z,23.50
2019-05-21T08:01:28.405Z,23.60
2019-05-21T08:02:29.848Z,23.62
2019-05-21T08:03:31.255Z,23.75
2019-05-21T08:04:32.661Z,23.93
2019-05-21T08:05:34.071Z,24.00
2019-05-21T08:06:35.490Z,24.04
2019-05-21T08:07:36.906Z,24.18
2019-05-21T08:08:38.315Z,24.30
2019-05-21T08:09:39.743Z,24.24
2019-05-21T08:10:41.155Z,24.24
2019-05-21T08:11:42.587Z,24.23
2019-05-21T08:12:43.998Z,24.18
2019-05-21T08:13:45.419Z,24.30
2019-05-21T08:14:46.833Z,24.30
2019-05-21T08:15:48.254Z,24.27
2019-05-21T08:16:49.662Z,24.29
2019-05-21T08:17:51.098Z,24.33
2019-05-21T08:18:52.486Z,24.42
2019-05-21T08:19:53.899Z,24.52
2019-05-21T08:20:55.305Z,24.56
2019-05-21T08:21:56.714Z,24.59
2019-05-21T08:22:58.119Z,24.61
2019-05-21T08:23:59.522Z,24.75
2019-05-21T08:25:00.957Z,24.80
2019-05-21T08:26:02.374Z,24.87
2019-05-21T08:27:03.777Z,24.90
2019-05-21T08:28:05.186Z,24.93
2019-05-21T08:29:06.590Z,25.01
2019-05-21T08:30:08.010Z,25.01
2019-05-21T08:31:09.426Z,25.04
2019-05-21T08:32:10.851Z,25.02
2019-05-21T08:33:12.255Z,25.23
2019-05-21T08:34:13.657Z,25.39
2019-05-21T08:35:15.100Z,25.39
2019-05-21T08:36:16.499Z,25.48
2019-05-21T08:37:17.915Z,25.54
2019-05-21T08:38:19.326Z,25.53
2019-05-21T08:39:28.687Z,25.51
2019-05-21T08:40:22.140Z,25.57
2019-05-21T08:41:23.547Z,25.59
2019-05-21T08:42:24.981Z,25.67
2019-05-21T08:43:26.367Z,25.60
2019-05-21T08:44:27.794Z,25.54
2019-05-21T08:45:29.196Z,25.71
2019-05-21T08:46:30.601Z,25.85
2019-05-21T08:47:32.029Z,25.83
2019-05-21T08:48:33.481Z,25.78
2019-05-21T08:49:34.889Z,25.69
2019-05-21T08:50:36.297Z,25.85
2019-05-21T08:51:37.709Z,25.94
2019-05-21T08:52:39.110Z,26.01
2019-05-21T08:53:40.516Z,25.98
2019-05-21T08:54:41.977Z,26.09
2019-05-21T08:55:43.338Z,26.21
2019-05-21T08:56:44.756Z,26.20
2019-05-21T08:58:03.697Z,26.01
2019-05-21T08:58:47.539Z,26.06
2019-05-21T08:59:48.946Z,25.94
2019-05-21T09:00:50.367Z,26.01
2019-05-21T09:01:51.761Z,26.00
2019-05-21T09:02:53.181Z,26.06
2019-05-21T09:03:54.585Z,26.27
2019-05-21T09:04:55.983Z,26.28
2019-05-21T09:05:57.396Z,26.24
2019-05-21T09:06:58.799Z,26.24
2019-05-21T09:08:00.203Z,26.19
2019-05-21T09:09:01.613Z,26.20
2019-05-21T09:10:03.032Z,26.20
2019-05-21T09:11:04.436Z,26.20
2019-05-21T09:12:05.857Z,26.08
2019-05-21T09:13:07.249Z,26.06
2019-05-21T09:14:08.673Z,26.13
2019-05-21T09:15:10.110Z,26.11
2019-05-21T09:16:11.511Z,26.17
2019-05-21T09:17:12.918Z,26.16
2019-05-21T09:18:14.321Z,26.28
2019-05-21T09:19:15.726Z,26.46
2019-05-21T09:20:17.141Z,26.49
2019-05-21T09:21:18.550Z,26.57
2019-05-21T09:22:19.959Z,26.72
2019-05-21T09:23:21.369Z,26.88
2019-05-21T09:24:22.784Z,26.94
2019-05-21T09:25:24.196Z,26.90
2019-05-21T09:26:25.582Z,26.81
2019-05-21T09:27:27.001Z,26.69
2019-05-21T09:28:28.418Z,26.60
2019-05-21T09:29:29.822Z,26.50
2019-05-21T09:30:31.226Z,26.39
2019-05-21T09:31:32.647Z,26.49
2019-05-21T09:32:34.059Z,26.54
2019-05-21T09:33:35.461Z,26.60
2019-05-21T09:34:48.167Z,26.54
2019-05-21T09:35:38.265Z,26.44
2019-05-21T09:36:39.676Z,26.17
2019-05-21T09:37:41.092Z,26.13
2019-05-21T09:38:42.493Z,26.09
2019-05-21T09:39:43.897Z,25.97
2019-05-21T09:40:45.307Z,26.01
2019-05-21T09:41:46.725Z,26.01
2019-05-21T09:42:48.138Z,26.00
2019-05-21T09:43:49.537Z,26.04
2019-05-21T09:44:50.944Z,26.01
2019-05-21T09:45:52.357Z,25.97
2019-05-21T09:46:53.768Z,25.67
2019-05-21T09:47:55.188Z,25.66
2019-05-21T09:48:56.603Z,25.67
2019-05-21T09:49:58.018Z,25.69
2019-05-21T09:50:59.498Z,25.69
2019-05-21T09:52:00.792Z,25.71
2019-05-21T09:53:02.217Z,25.74
2019-05-21T09:54:03.644Z,25.72
2019-05-21T09:55:05.052Z,25.72
2019-05-21T09:56:06.471Z,25.72
2019-05-21T09:57:07.885Z,25.60
2019-05-21T09:58:09.288Z,25.59
2019-05-21T09:59:10.717Z,25.60
2019-05-21T10:00:12.124Z,25.57
2019-05-21T10:01:13.524Z,25.51
2019-05-21T10:02:14.926Z,25.44
2019-05-21T10:03:16.348Z,25.41
2019-05-21T10:04:17.752Z,25.41
2019-05-21T10:05:19.163Z,25.35
2019-05-21T10:06:20.573Z,25.30
2019-05-21T10:07:38.025Z,25.41
2019-05-21T10:08:23.364Z,25.56
2019-05-21T10:09:24.791Z,25.83
2019-05-21T10:10:26.185Z,26.16
2019-05-21T10:11:27.587Z,26.34
2019-05-21T10:12:28.993Z,26.50
2019-05-21T10:13:30.400Z,26.65
2019-05-21T10:14:34.116Z,26.76
2019-05-21T10:15:33.201Z,26.90
2019-05-21T10:16:34.623Z,27.09
2019-05-21T10:17:36.035Z,27.21
2019-05-21T10:18:37.439Z,27.30
2019-05-21T10:19:38.858Z,27.24
2019-05-21T10:20:40.259Z,27.33
2019-05-21T10:21:41.674Z,27.27
2019-05-21T10:22:43.067Z,27.21
2019-05-21T10:23:44.486Z,27.12
2019-05-21T10:24:45.883Z,26.90
2019-05-21T10:25:47.299Z,26.66
2019-05-21T10:26:48.686Z,26.60
2019-05-21T10:27:50.101Z,26.49
2019-05-21T10:28:51.508Z,26.28
2019-05-21T10:29:52.922Z,26.20
2019-05-21T10:30:54.331Z,26.20
2019-05-21T10:31:55.752Z,26.13
2019-05-21T10:32:57.150Z,25.98
2019-05-21T10:33:58.560Z,25.90
2019-05-21T10:34:59.968Z,25.83
2019-05-21T10:36:01.379Z,25.97
2019-05-21T10:37:02.804Z,26.08
2019-05-21T10:38:04.215Z,26.31
2019-05-21T10:39:05.657Z,26.44
2019-05-21T10:40:07.061Z,26.65
2019-05-21T10:41:08.471Z,26.81
2019-05-21T10:42:09.883Z,26.68
2019-05-21T10:43:11.291Z,26.83
2019-05-21T10:44:12.700Z,26.79
2019-05-21T10:45:14.108Z,26.83
2019-05-21T10:46:15.536Z,26.79
2019-05-21T10:47:16.991Z,26.79
2019-05-21T10:48:18.336Z,26.87
2019-05-21T10:49:19.750Z,26.83
2019-05-21T10:50:21.173Z,26.90
2019-05-21T10:51:22.582Z,26.96
2019-05-21T10:52:24.004Z,26.96
2019-05-21T10:53:25.418Z,27.08
2019-05-21T10:54:26.823Z,26.96
2019-05-21T10:55:28.228Z,26.81
2019-05-21T10:56:46.435Z,26.87
2019-05-21T10:57:31.054Z,26.81
2019-05-21T10:58:32.461Z,26.83
2019-05-21T10:59:33.872Z,26.73
2019-05-21T11:00:35.276Z,26.60
2019-05-21T11:01:36.691Z,26.60
2019-05-21T11:02:38.109Z,26.57
2019-05-21T11:03:39.518Z,26.41
2019-05-21T11:04:40.939Z,26.42
2019-05-21T11:05:42.351Z,26.24
2019-05-21T11:06:43.771Z,26.17
2019-05-21T11:07:45.175Z,26.17
2019-05-21T11:08:46.580Z,26.20
2019-05-21T11:09:47.997Z,26.24
2019-05-21T11:10:49.416Z,26.21
2019-05-21T11:11:50.816Z,26.12
2019-05-21T11:12:52.211Z,26.29
2019-05-21T11:13:53.623Z,26.20
2019-05-21T11:14:55.026Z,26.19
2019-05-21T11:15:56.441Z,26.20
2019-05-21T11:16:57.864Z,26.24
2019-05-21T11:18:09.228Z,26.34
2019-05-21T11:19:00.738Z,26.41
2019-05-21T11:20:02.180Z,26.46
2019-05-21T11:21:03.590Z,26.65
2019-05-21T11:22:05.016Z,26.68
2019-05-21T11:23:06.483Z,26.84
2019-05-21T11:24:07.910Z,26.72
2019-05-21T11:25:09.335Z,26.71
2019-05-21T11:26:10.755Z,26.64
2019-05-21T11:27:12.158Z,26.60
2019-05-21T11:28:13.568Z,26.41
2019-05-21T11:29:14.982Z,26.24
2019-05-21T11:30:16.390Z,26.28
2019-05-21T11:31:17.811Z,26.13
2019-05-21T11:32:19.220Z,26.13
2019-05-21T11:33:20.652Z,25.97
2019-05-21T11:34:22.068Z,25.86
2019-05-21T11:35:23.475Z,25.81
2019-05-21T11:36:24.911Z,25.83
2019-05-21T11:37:26.316Z,25.98
2019-05-21T11:38:39.670Z,26.08
2019-05-21T11:39:29.124Z,26.11
2019-05-21T11:40:30.541Z,25.98
2019-05-21T11:41:31.946Z,25.82
2019-05-21T11:42:33.366Z,25.76
2019-05-21T11:43:34.785Z,25.69
2019-05-21T11:44:36.228Z,25.66
2019-05-21T11:45:37.631Z,25.61
2019-05-21T11:46:39.039Z,25.54
2019-05-21T11:47:40.444Z,25.57
2019-05-21T11:48:41.877Z,25.83
2019-05-21T11:49:43.306Z,26.08
2019-05-21T11:50:44.712Z,26.21
2019-05-21T11:51:46.117Z,26.24
2019-05-21T11:52:47.523Z,26.28
2019-05-21T11:53:48.936Z,26.34
2019-05-21T11:54:50.338Z,26.21
2019-05-21T11:55:51.749Z,26.19
2019-05-21T11:56:53.154Z,26.19
2019-05-21T11:57:54.559Z,26.19
2019-05-21T11:58:55.975Z,26.19
2019-05-21T11:59:57.381Z,26.11
2019-05-21T12:00:58.819Z,26.13
2019-05-21T12:02:00.218Z,26.11
2019-05-21T12:03:01.632Z,26.13
2019-05-21T12:04:03.056Z,26.17
2019-05-21T12:05:04.458Z,26.17
2019-05-21T12:06:05.921Z,26.23
2019-05-21T12:07:07.253Z,26.16
2019-05-21T12:08:08.666Z,26.16
2019-05-21T12:09:10.087Z,26.32
2019-05-21T12:10:11.494Z,26.50
2019-05-21T12:11:12.904Z,26.51
2019-05-21T12:12:14.317Z,26.50
2019-05-21T12:13:15.725Z,26.47
2019-05-21T12:14:17.140Z,26.50
2019-05-21T12:15:18.554Z,26.47
2019-05-21T12:16:19.982Z,26.49
2019-05-21T12:17:21.376Z,26.57
2019-05-21T12:18:22.803Z,26.60
2019-05-21T12:19:24.200Z,26.56
2019-05-21T12:20:35.961Z,26.44
2019-05-21T12:21:26.975Z,26.44
2019-05-21T12:22:28.396Z,26.42
2019-05-21T12:23:29.801Z,26.53
2019-05-21T12:24:31.207Z,26.47
2019-05-21T12:25:32.626Z,26.42
2019-05-21T12:26:34.042Z,26.46
2019-05-21T12:27:35.473Z,26.47
2019-05-21T12:28:36.885Z,26.56
2019-05-21T12:29:38.317Z,26.66
2019-05-21T12:30:39.730Z,26.68
2019-05-21T12:31:41.145Z,26.65
2019-05-21T12:32:42.554Z,26.51
2019-05-21T12:33:43.957Z,26.42
2019-05-21T12:34:45.363Z,26.38
2019-05-21T12:35:46.785Z,26.27
2019-05-21T12:36:48.195Z,26.41
2019-05-21T12:37:49.596Z,26.42
2019-05-21T12:38:51.012Z,26.44
2019-05-21T12:39:52.457Z,26.38
2019-05-21T12:40:53.860Z,26.47
2019-05-21T12:41:55.254Z,26.42
2019-05-21T12:42:56.668Z,26.57
2019-05-21T12:43:58.079Z,26.54
2019-05-21T12:44:59.487Z,26.65
2019-05-21T12:46:00.894Z,26.68
2019-05-21T12:47:02.319Z,26.69
2019-05-21T12:48:03.733Z,26.69
2019-05-21T12:49:05.127Z,26.73
2019-05-21T12:50:06.562Z,26.78
2019-05-21T12:51:07.968Z,26.75
2019-05-21T12:52:09.400Z,26.56
2019-05-21T12:53:10.747Z,26.50
2019-05-21T12:54:12.149Z,26.47
2019-05-21T12:55:13.554Z,26.32
2019-05-21T12:56:14.980Z,26.28
2019-05-21T12:57:16.404Z,26.20
2019-05-21T12:58:17.822Z,26.08
2019-05-21T12:59:19.223Z,26.04
2019-05-21T13:00:20.629Z,25.91
2019-05-21T13:01:22.052Z,25.81
2019-05-21T13:02:23.474Z,25.69
2019-05-21T13:03:24.894Z,25.67
2019-05-21T13:04:26.310Z,25.51
2019-05-21T13:05:27.722Z,25.49
2019-05-21T13:06:29.132Z,25.45
2019-05-21T13:07:30.548Z,25.38
2019-05-21T13:08:31.960Z,25.41
2019-05-21T13:09:33.372Z,25.38
2019-05-21T13:10:34.872Z,25.39